Time;durP1;ratioP1;P1;durP2;ratioP2;P2;SDS_P1;SDS_P2;PMS_P1;PMS_P2;Temp;Humidity;BMP_temperature;BMP_pressure;BME280_temperature;BME280_humidity;BME280_pressure;Samples;Min_cycle;Max_cycle;Signal;HPM_P1;HPM_P2
2022/11/02 00:00:22;;;;;;;0.80;0.40;;;;;;;;;;6154972;23;20029;-90
2022/11/02 00:02:51;;;;;;;0.25;0.25;;;;;;;;;;6153746;23;20359;-89
2022/11/02 00:05:23;;;;;;;0.65;0.40;;;;;;;;;;6154213;23;20463;-90
2022/11/02 00:07:53;;;;;;;0.68;0.50;;;;;;;;;;6154195;23;20105;-90
2022/11/02 00:10:24;;;;;;;0.68;0.68;;;;;;;;;;6155009;23;20022;-90
2022/11/02 00:12:52;;;;;;;2.55;0.70;;;;;;;;;;6154130;23;20026;-90
2022/11/02 00:15:21;;;;;;;0.43;0.43;;;;;;;;;;6155236;23;20018;-89
2022/11/02 00:17:51;;;;;;;0.50;0.40;;;;;;;;;;6154569;23;20025;-90
2022/11/02 00:20:20;;;;;;;1.80;0.70;;;;;;;;;;6154762;23;20056;-90
2022/11/02 00:22:48;;;;;;;0.20;0.20;;;;;;;;;;6153128;23;20037;-89
2022/11/02 00:25:21;;;;;;;0.22;0.20;;;;;;;;;;6154311;23;20125;-91
2022/11/02 00:27:49;;;;;;;0.40;0.40;;;;;;;;;;6154366;23;20359;-90
2022/11/02 00:30:17;;;;;;;0.35;0.20;;;;;;;;;;6154788;23;20032;-91
2022/11/02 00:32:46;;;;;;;1.23;0.47;;;;;;;;;;6153602;23;20371;-89
2022/11/02 00:35:14;;;;;;;0.52;0.52;;;;;;;;;;6154095;23;20029;-90
2022/11/02 00:37:42;;;;;;;0.70;0.40;;;;;;;;;;6154701;23;20017;-91
2022/11/02 00:40:11;;;;;;;1.77;0.80;;;;;;;;;;6154659;23;20049;-91
2022/11/02 00:42:41;;;;;;;3.55;1.25;;;;;;;;;;6153340;23;20521;-90
2022/11/02 00:45:10;;;;;;;0.70;0.70;;;;;;;;;;6154920;23;20028;-89
2022/11/02 00:47:38;;;;;;;0.35;0.35;;;;;;;;;;6154272;23;20025;-90
2022/11/02 00:50:07;;;;;;;1.30;0.52;;;;;;;;;;6154260;23;20029;-90
2022/11/02 00:52:35;;;;;;;1.10;0.35;;;;;;;;;;6152805;23;20031;-90
2022/11/02 00:55:03;;;;;;;1.98;0.50;;;;;;;;;;6154214;23;20024;-91
2022/11/02 00:57:32;;;;;;;0.60;0.60;;;;;;;;;;6154172;23;20025;-91
2022/11/02 01:00:01;;;;;;;1.20;0.50;;;;;;;;;;6154065;23;20024;-90
2022/11/02 01:02:30;;;;;;;0.95;0.55;;;;;;;;;;6152956;23;20473;-91
2022/11/02 01:04:58;;;;;;;2.00;0.38;;;;;;;;;;6153955;23;20100;-90
2022/11/02 01:07:28;;;;;;;2.08;1.20;;;;;;;;;;6153759;23;20026;-91
2022/11/02 01:09:56;;;;;;;0.73;0.65;;;;;;;;;;6153851;23;20029;-91
2022/11/02 01:12:24;;;;;;;0.45;0.45;;;;;;;;;;6153094;23;20079;-92
2022/11/02 01:14:52;;;;;;;1.55;0.73;;;;;;;;;;6154170;23;20021;-91
2022/11/02 01:17:22;;;;;;;0.75;0.40;;;;;;;;;;6154026;23;20017;-91
2022/11/02 01:19:50;;;;;;;0.65;0.65;;;;;;;;;;6154211;23;20024;-91
2022/11/02 01:22:19;;;;;;;0.20;0.20;;;;;;;;;;6153328;23;20026;-90
2022/11/02 01:24:47;;;;;;;0.93;0.43;;;;;;;;;;6154311;23;20017;-91
2022/11/02 01:27:15;;;;;;;1.50;0.60;;;;;;;;;;6153879;23;20104;-91
2022/11/02 01:29:44;;;;;;;3.20;0.50;;;;;;;;;;6154347;23;20029;-89
2022/11/02 01:32:12;;;;;;;1.52;0.73;;;;;;;;;;6153044;23;20076;-91
2022/11/02 01:34:42;;;;;;;1.25;0.35;;;;;;;;;;6154575;23;20022;-90
2022/11/02 01:37:10;;;;;;;1.83;1.05;;;;;;;;;;6154124;23;20347;-90
2022/11/02 01:39:39;;;;;;;4.47;0.68;;;;;;;;;;6154379;23;20026;-90
2022/11/02 01:42:17;;;;;;;0.40;0.40;;;;;;;;;;6154174;23;20022;-92
2022/11/02 01:44:45;;;;;;;2.20;0.85;;;;;;;;;;6154701;23;20092;-91
2022/11/02 01:47:16;;;;;;;0.75;0.43;;;;;;;;;;6154266;23;20494;-91
2022/11/02 01:49:47;;;;;;;0.55;0.55;;;;;;;;;;6154961;23;20372;-90
2022/11/02 01:52:17;;;;;;;2.33;0.80;;;;;;;;;;6154194;23;20446;-91
2022/11/02 01:54:48;;;;;;;0.52;0.35;;;;;;;;;;6154304;23;20101;-90
2022/11/02 01:57:20;;;;;;;0.95;0.63;;;;;;;;;;6153442;23;20026;-91
2022/11/02 01:59:52;;;;;;;0.80;0.70;;;;;;;;;;6153889;23;20022;-91
2022/11/02 02:02:21;;;;;;;0.30;0.30;;;;;;;;;;6153562;23;20481;-91
2022/11/02 02:04:53;;;;;;;0.52;0.47;;;;;;;;;;6153525;23;20044;-91
2022/11/02 02:07:23;;;;;;;1.42;1.13;;;;;;;;;;6153393;23;20028;-91
2022/11/02 02:09:52;;;;;;;0.43;0.30;;;;;;;;;;6153622;23;20032;-90
2022/11/02 02:12:21;;;;;;;0.20;0.20;;;;;;;;;;6153563;23;20021;-90
2022/11/02 02:14:49;;;;;;;0.38;0.30;;;;;;;;;;6154277;23;20029;-92
2022/11/02 02:17:29;;;;;;;6.70;0.80;;;;;;;;;;6154232;23;20494;-90
2022/11/02 02:20:02;;;;;;;0.60;0.60;;;;;;;;;;6154232;23;20113;-91
2022/11/02 02:22:45;;;;;;;0.90;0.45;;;;;;;;;;6153679;23;20032;-90
2022/11/02 02:25:27;;;;;;;0.73;0.73;;;;;;;;;;6152610;23;20033;-91
2022/11/02 02:28:07;;;;;;;0.80;0.63;;;;;;;;;;6154696;23;20029;-90
2022/11/02 02:30:39;;;;;;;0.52;0.50;;;;;;;;;;6155081;23;20021;-92
2022/11/02 02:33:09;;;;;;;4.97;2.15;;;;;;;;;;6154427;23;20129;-83
2022/11/02 02:35:40;;;;;;;0.68;0.68;;;;;;;;;;6122186;23;20557;-85
2022/11/02 02:38:11;;;;;;;1.60;0.68;;;;;;;;;;6127477;23;20029;-91
2022/11/02 02:40:41;;;;;;;1.25;0.70;;;;;;;;;;6154184;23;20402;-90
2022/11/02 02:43:12;;;;;;;2.92;0.93;;;;;;;;;;6149351;23;20033;-90
2022/11/02 02:45:44;;;;;;;0.50;0.50;;;;;;;;;;6153775;23;20017;-90
2022/11/02 02:48:13;;;;;;;0.93;0.38;;;;;;;;;;6154907;23;20032;-89
2022/11/02 02:50:45;;;;;;;1.17;0.50;;;;;;;;;;6154942;23;20033;-88
2022/11/02 02:53:14;;;;;;;3.92;0.80;;;;;;;;;;6155988;23;20017;-90
2022/11/02 02:55:45;;;;;;;2.45;0.75;;;;;;;;;;6155724;23;20109;-89
2022/11/02 02:58:20;;;;;;;3.53;0.73;;;;;;;;;;6155545;23;20096;-90
2022/11/02 03:00:48;;;;;;;2.60;0.88;;;;;;;;;;6154877;23;20025;-90
2022/11/02 03:03:18;;;;;;;2.47;0.28;;;;;;;;;;6155922;23;20030;-91
2022/11/02 03:05:56;;;;;;;0.55;0.50;;;;;;;;;;6156054;23;20017;-91
2022/11/02 03:08:24;;;;;;;1.10;0.50;;;;;;;;;;6155347;23;20476;-90
2022/11/02 03:10:55;;;;;;;1.15;0.60;;;;;;;;;;6155367;23;20026;-91
2022/11/02 03:13:36;;;;;;;3.13;0.80;;;;;;;;;;6155818;23;20032;-90
2022/11/02 03:16:07;;;;;;;1.88;0.52;;;;;;;;;;6155962;23;20018;-90
2022/11/02 03:18:40;;;;;;;2.10;0.73;;;;;;;;;;6155898;23;20438;-92
2022/11/02 03:21:16;;;;;;;0.93;0.50;;;;;;;;;;6155172;23;20477;-91
2022/11/02 03:23:49;;;;;;;0.73;0.38;;;;;;;;;;6155929;23;20412;-89
2022/11/02 03:26:23;;;;;;;0.57;0.38;;;;;;;;;;6156030;23;20021;-89
2022/11/02 03:28:58;;;;;;;1.50;0.50;;;;;;;;;;6155368;23;20037;-90
2022/11/02 03:31:30;;;;;;;0.55;0.43;;;;;;;;;;6155614;23;20053;-88
2022/11/02 03:34:03;;;;;;;1.95;0.60;;;;;;;;;;6155864;23;20105;-88
2022/11/02 03:36:34;;;;;;;6.38;0.60;;;;;;;;;;6155437;23;20022;-88
2022/11/02 03:39:07;;;;;;;1.02;0.40;;;;;;;;;;6155311;23;20424;-88
2022/11/02 03:41:36;;;;;;;0.35;0.30;;;;;;;;;;6154443;23;20033;-91
2022/11/02 03:44:07;;;;;;;0.35;0.30;;;;;;;;;;6155243;23;20041;-89
2022/11/02 03:46:38;;;;;;;2.38;0.68;;;;;;;;;;6155399;23;20438;-91
2022/11/02 03:49:07;;;;;;;0.20;0.20;;;;;;;;;;6155667;23;20017;-89
2022/11/02 03:51:38;;;;;;;0.52;0.50;;;;;;;;;;6154821;23;20466;-90
2022/11/02 03:54:08;;;;;;;1.05;0.60;;;;;;;;;;6155926;23;20028;-88
2022/11/02 03:56:40;;;;;;;1.85;0.68;;;;;;;;;;6156331;23;20044;-90
2022/11/02 03:59:09;;;;;;;0.95;0.40;;;;;;;;;;6155799;23;20021;-88
2022/11/02 04:01:39;;;;;;;1.38;0.60;;;;;;;;;;6155026;23;20026;-90
2022/11/02 04:04:08;;;;;;;2.85;0.93;;;;;;;;;;6155233;23;20025;-89
2022/11/02 04:06:36;;;;;;;0.65;0.30;;;;;;;;;;6155073;23;20018;-89
2022/11/02 04:09:07;;;;;;;7.20;0.55;;;;;;;;;;6156019;23;20026;-89
2022/11/02 04:14:39;;;;;;;2.05;0.70;;;;;;;;;;6155512;23;20092;-90
2022/11/02 04:20:01;;;;;;;0.40;0.40;;;;;;;;;;6155549;23;20016;-90
2022/11/02 04:25:17;;;;;;;1.13;0.60;;;;;;;;;;6155835;23;20025;-89
2022/11/02 04:27:46;;;;;;;4.65;0.80;;;;;;;;;;6155586;23;20052;-89
2022/11/02 04:30:17;;;;;;;2.53;0.63;;;;;;;;;;6155282;23;20033;-89
2022/11/02 04:35:32;;;;;;;2.20;0.68;;;;;;;;;;6155343;23;20457;-89
2022/11/02 04:40:47;;;;;;;1.10;0.60;;;;;;;;;;6153765;23;20017;-91
2022/11/02 04:43:15;;;;;;;1.38;0.45;;;;;;;;;;6155721;23;20025;-89
2022/11/02 04:45:45;;;;;;;2.00;0.60;;;;;;;;;;6155298;23;20026;-89
2022/11/02 04:48:14;;;;;;;0.90;0.38;;;;;;;;;;6155247;23;20032;-88
2022/11/02 04:50:43;;;;;;;0.55;0.30;;;;;;;;;;6154148;23;20026;-89
2022/11/02 04:53:13;;;;;;;1.20;0.63;;;;;;;;;;6154985;23;20049;-90
2022/11/02 04:55:41;;;;;;;0.30;0.30;;;;;;;;;;6155246;23;20028;-90
2022/11/02 04:58:11;;;;;;;1.10;0.35;;;;;;;;;;6154898;23;20473;-89
2022/11/02 05:00:39;;;;;;;2.33;0.57;;;;;;;;;;6155526;23;20442;-88
2022/11/02 05:03:09;;;;;;;0.70;0.40;;;;;;;;;;6155344;23;20107;-91
2022/11/02 05:05:39;;;;;;;1.48;0.68;;;;;;;;;;6155698;23;20028;-90
2022/11/02 05:08:08;;;;;;;0.88;0.82;;;;;;;;;;6154978;23;20339;-89
2022/11/02 05:10:36;;;;;;;0.50;0.50;;;;;;;;;;6154793;23;20021;-90
2022/11/02 05:13:05;;;;;;;0.52;0.43;;;;;;;;;;6154491;23;20493;-90
2022/11/02 05:15:33;;;;;;;0.73;0.60;;;;;;;;;;6156090;23;20018;-89
2022/11/02 05:18:01;;;;;;;5.78;0.90;;;;;;;;;;6155394;23;20056;-89
2022/11/02 05:20:32;;;;;;;0.63;0.40;;;;;;;;;;6155901;23;20027;-90
2022/11/02 05:23:00;;;;;;;2.05;0.57;;;;;;;;;;6154213;23;20021;-89
2022/11/02 05:25:29;;;;;;;2.08;0.65;;;;;;;;;;6155910;23;20022;-90
2022/11/02 05:27:57;;;;;;;0.95;0.40;;;;;;;;;;6155286;23;20040;-90
2022/11/02 05:30:25;;;;;;;4.82;0.80;;;;;;;;;;6155176;23;20025;-89
2022/11/02 05:32:56;;;;;;;3.42;0.65;;;;;;;;;;6154497;23;20021;-89
2022/11/02 05:35:24;;;;;;;0.40;0.20;;;;;;;;;;6154967;23;20028;-90
2022/11/02 05:37:56;;;;;;;4.25;1.33;;;;;;;;;;6154063;23;20047;-90
2022/11/02 05:40:25;;;;;;;1.27;0.50;;;;;;;;;;6154580;23;20477;-89
2022/11/02 05:42:59;;;;;;;1.58;0.82;;;;;;;;;;6154031;23;20032;-89
2022/11/02 05:45:27;;;;;;;1.23;0.47;;;;;;;;;;6154665;23;20524;-89
2022/11/02 05:47:55;;;;;;;1.30;0.57;;;;;;;;;;6154801;23;20025;-90
2022/11/02 05:50:23;;;;;;;1.65;0.47;;;;;;;;;;6155453;23;20028;-88
2022/11/02 05:52:52;;;;;;;0.93;0.63;;;;;;;;;;6154034;23;20026;-89
2022/11/02 05:55:23;;;;;;;0.30;0.30;;;;;;;;;;6155137;23;20108;-90
2022/11/02 05:57:52;;;;;;;1.20;0.63;;;;;;;;;;6155631;23;20374;-89
2022/11/02 06:00:23;;;;;;;0.65;0.43;;;;;;;;;;6154947;23;20024;-89
2022/11/02 06:02:56;;;;;;;1.90;0.60;;;;;;;;;;6153818;23;20017;-88
2022/11/02 06:05:24;;;;;;;0.57;0.40;;;;;;;;;;6154592;23;20501;-89
2022/11/02 06:07:57;;;;;;;2.85;1.02;;;;;;;;;;6154896;23;20021;-90
2022/11/02 06:10:27;;;;;;;1.33;0.68;;;;;;;;;;6154190;23;20021;-88
2022/11/02 06:12:56;;;;;;;4.32;1.80;;;;;;;;;;6153822;23;20029;-89
2022/11/02 06:15:25;;;;;;;0.82;0.57;;;;;;;;;;6154537;23;20028;-90
2022/11/02 06:17:53;;;;;;;9.05;0.90;;;;;;;;;;6154725;23;20096;-89
2022/11/02 06:20:22;;;;;;;0.68;0.68;;;;;;;;;;6155193;23;20053;-90
2022/11/02 06:22:50;;;;;;;2.60;0.50;;;;;;;;;;6154680;23;20026;-89
2022/11/02 06:25:19;;;;;;;1.10;0.65;;;;;;;;;;6156814;23;20096;-90
2022/11/02 06:27:55;;;;;;;3.22;0.85;;;;;;;;;;6156896;23;20037;-89
2022/11/02 06:30:24;;;;;;;8.48;0.55;;;;;;;;;;6156592;23;20469;-90
2022/11/02 06:32:53;;;;;;;2.90;0.55;;;;;;;;;;6156145;23;20036;-89
2022/11/02 06:35:22;;;;;;;0.20;0.20;;;;;;;;;;6156815;23;20021;-89
2022/11/02 06:37:50;;;;;;;0.40;0.40;;;;;;;;;;6155985;23;20350;-89
2022/11/02 06:40:19;;;;;;;0.30;0.30;;;;;;;;;;6156667;23;20025;-89
2022/11/02 06:42:57;;;;;;;1.92;1.05;;;;;;;;;;6155889;23;20072;-89
2022/11/02 06:45:45;;;;;;;0.90;0.90;;;;;;;;;;6156376;23;20018;-89
2022/11/02 06:48:14;;;;;;;3.28;0.82;;;;;;;;;;6156075;23;20056;-90
2022/11/02 06:50:42;;;;;;;1.40;0.70;;;;;;;;;;6155255;23;20422;-87
2022/11/02 06:53:14;;;;;;;1.08;0.40;;;;;;;;;;6155896;23;20026;-88
2022/11/02 06:55:43;;;;;;;1.80;0.50;;;;;;;;;;6155917;23;20272;-89
2022/11/02 06:58:13;;;;;;;0.30;0.30;;;;;;;;;;6156630;23;20100;-89
2022/11/02 07:00:41;;;;;;;0.85;0.65;;;;;;;;;;6156469;23;20057;-89
2022/11/02 07:03:11;;;;;;;0.80;0.43;;;;;;;;;;6155838;23;20021;-89
2022/11/02 07:05:39;;;;;;;1.25;0.22;;;;;;;;;;6155726;23;20379;-89
2022/11/02 07:08:08;;;;;;;0.80;0.40;;;;;;;;;;6156334;23;20049;-88
2022/11/02 07:10:36;;;;;;;1.45;0.70;;;;;;;;;;6155742;23;20383;-89
2022/11/02 07:13:04;;;;;;;0.28;0.20;;;;;;;;;;6155509;23;20452;-89
2022/11/02 07:15:34;;;;;;;0.65;0.50;;;;;;;;;;6156384;23;20018;-89
2022/11/02 07:18:05;;;;;;;3.55;0.98;;;;;;;;;;6155633;23;20029;-88
2022/11/02 07:20:33;;;;;;;0.40;0.40;;;;;;;;;;6156286;23;20339;-89
2022/11/02 07:23:03;;;;;;;0.52;0.47;;;;;;;;;;6154755;23;20024;-89
2022/11/02 07:25:34;;;;;;;3.45;0.40;;;;;;;;;;6155966;23;20017;-90
2022/11/02 07:28:05;;;;;;;0.63;0.50;;;;;;;;;;6155577;23;20021;-89
2022/11/02 07:30:35;;;;;;;2.13;0.65;;;;;;;;;;6155485;23;20018;-89
2022/11/02 07:33:03;;;;;;;1.63;0.80;;;;;;;;;;6154260;23;20454;-89
2022/11/02 07:35:33;;;;;;;3.40;0.47;;;;;;;;;;6156068;23;20025;-89
2022/11/02 07:38:03;;;;;;;1.08;0.60;;;;;;;;;;6154947;23;20100;-90
2022/11/02 07:40:32;;;;;;;0.45;0.43;;;;;;;;;;6155333;23;20022;-90
2022/11/02 07:43:01;;;;;;;2.03;0.85;;;;;;;;;;6151433;23;20028;-90
2022/11/02 07:45:30;;;;;;;0.85;0.85;;;;;;;;;;6153019;23;20024;-90
2022/11/02 07:48:02;;;;;;;0.32;0.30;;;;;;;;;;6152844;23;20324;-91
2022/11/02 07:50:31;;;;;;;1.08;0.77;;;;;;;;;;6152792;23;20017;-90
2022/11/02 07:53:00;;;;;;;0.65;0.40;;;;;;;;;;6152255;23;20477;-91
2022/11/02 07:55:30;;;;;;;1.38;0.70;;;;;;;;;;6153708;23;20026;-89
2022/11/02 07:57:59;;;;;;;1.95;0.73;;;;;;;;;;6154694;23;20105;-91
2022/11/02 08:00:28;;;;;;;4.32;0.73;;;;;;;;;;6154939;23;20486;-90
2022/11/02 08:02:57;;;;;;;0.70;0.35;;;;;;;;;;6154644;23;20068;-93
2022/11/02 08:05:28;;;;;;;2.30;0.52;;;;;;;;;;6156244;23;20096;-92
2022/11/02 08:07:59;;;;;;;3.17;0.65;;;;;;;;;;6155531;23;20064;-91
2022/11/02 08:10:29;;;;;;;1.13;0.55;;;;;;;;;;6155250;23;20033;-91
2022/11/02 08:13:04;;;;;;;1.40;0.60;;;;;;;;;;6153921;23;20049;-91
2022/11/02 08:15:32;;;;;;;0.68;0.52;;;;;;;;;;6155499;23;20033;-92
2022/11/02 08:18:02;;;;;;;5.35;0.60;;;;;;;;;;6154968;23;20413;-91
2022/11/02 08:20:32;;;;;;;6.30;1.20;;;;;;;;;;6155795;23;20057;-92
2022/11/02 08:23:01;;;;;;;0.38;0.35;;;;;;;;;;6154462;23;20033;-92
2022/11/02 08:25:30;;;;;;;3.28;0.70;;;;;;;;;;6155802;23;20022;-93
2022/11/02 08:27:58;;;;;;;1.58;0.80;;;;;;;;;;6155445;23;20411;-92
2022/11/02 08:30:28;;;;;;;0.75;0.50;;;;;;;;;;6155402;23;20088;-93
2022/11/02 08:32:56;;;;;;;1.38;0.40;;;;;;;;;;6155587;23;20021;-91
2022/11/02 08:35:25;;;;;;;3.95;0.65;;;;;;;;;;6157618;23;20049;-92
2022/11/02 08:37:55;;;;;;;9.25;0.98;;;;;;;;;;6155998;23;20021;-94
2022/11/02 08:40:23;;;;;;;3.67;1.50;;;;;;;;;;6155498;23;20557;-93
2022/11/02 08:42:57;;;;;;;1.63;0.90;;;;;;;;;;6154490;23;20028;-90
2022/11/02 08:45:26;;;;;;;1.75;0.47;;;;;;;;;;6157117;23;20075;-93
2022/11/02 08:47:57;;;;;;;1.05;0.45;;;;;;;;;;6157166;23;20421;-94
2022/11/02 08:50:26;;;;;;;0.93;0.50;;;;;;;;;;6157683;23;20041;-91
2022/11/02 08:52:56;;;;;;;1.40;0.30;;;;;;;;;;6153208;23;20477;-91
2022/11/02 08:55:25;;;;;;;0.30;0.30;;;;;;;;;;6156405;23;20017;-93
2022/11/02 08:57:55;;;;;;;0.40;0.35;;;;;;;;;;6154648;23;20088;-94
2022/11/02 09:00:24;;;;;;;3.85;1.10;;;;;;;;;;6155672;23;20026;-92
2022/11/02 09:03:00;;;;;;;1.20;0.43;;;;;;;;;;6154420;23;20029;-93
2022/11/02 09:05:28;;;;;;;0.57;0.35;;;;;;;;;;6154726;23;20225;-90
2022/11/02 09:07:59;;;;;;;0.47;0.40;;;;;;;;;;6153535;23;20096;-90
2022/11/02 09:10:29;;;;;;;1.35;1.25;;;;;;;;;;6155130;23;20041;-92
2022/11/02 09:12:59;;;;;;;1.85;0.30;;;;;;;;;;6151623;23;20125;-90
2022/11/02 09:15:28;;;;;;;0.30;0.20;;;;;;;;;;6155248;23;20052;-92
2022/11/02 09:17:56;;;;;;;0.28;0.28;;;;;;;;;;6153942;23;20025;-91
2022/11/02 09:20:25;;;;;;;1.35;1.05;;;;;;;;;;6154689;23;20032;-92
2022/11/02 09:22:53;;;;;;;0.73;0.70;;;;;;;;;;6153652;23;20029;-94
2022/11/02 09:25:23;;;;;;;1.35;0.40;;;;;;;;;;6155766;23;20025;-94
2022/11/02 09:27:53;;;;;;;1.23;0.50;;;;;;;;;;6155008;23;20021;-93
2022/11/02 09:30:23;;;;;;;0.55;0.43;;;;;;;;;;6154703;23;20022;-91
2022/11/02 09:32:55;;;;;;;2.03;0.52;;;;;;;;;;6156028;23;20036;-93
2022/11/02 09:35:24;;;;;;;0.22;0.22;;;;;;;;;;6155475;23;20474;-94
2022/11/02 09:37:52;;;;;;;1.45;0.40;;;;;;;;;;6155001;23;20069;-91
2022/11/02 09:40:23;;;;;;;2.65;0.40;;;;;;;;;;6157720;23;20026;-95
2022/11/02 09:42:59;;;;;;;0.80;0.80;;;;;;;;;;6155596;23;20053;-95
2022/11/02 09:45:30;;;;;;;0.17;0.17;;;;;;;;;;6156032;23;20537;-92
2022/11/02 09:48:02;;;;;;;1.08;1.05;;;;;;;;;;6155278;23;20025;-93
2022/11/02 09:50:47;;;;;;;1.50;0.38;;;;;;;;;;6154864;23;20037;-96
2022/11/02 09:53:20;;;;;;;0.55;0.17;;;;;;;;;;6158706;23;20025;-92
2022/11/02 09:55:53;;;;;;;0.85;0.30;;;;;;;;;;6156486;23;20025;-89
2022/11/02 09:58:24;;;;;;;0.43;0.40;;;;;;;;;;6153835;23;20018;-92
2022/11/02 10:00:56;;;;;;;0.28;0.28;;;;;;;;;;6155013;23;20060;-94
2022/11/02 10:03:34;;;;;;;1.23;0.45;;;;;;;;;;6157615;23;20053;-96
2022/11/02 10:06:06;;;;;;;0.57;0.50;;;;;;;;;;6161491;23;20017;-94
2022/11/02 10:08:39;;;;;;;1.15;0.28;;;;;;;;;;6159850;23;20057;-94
2022/11/02 10:11:15;;;;;;;0.68;0.50;;;;;;;;;;6153699;23;20091;-83
2022/11/02 10:13:47;;;;;;;1.02;0.57;;;;;;;;;;6154816;23;20021;-83
2022/11/02 10:16:23;;;;;;;1.75;0.50;;;;;;;;;;6154194;23;20028;-83
2022/11/02 10:18:53;;;;;;;0.25;0.25;;;;;;;;;;6154189;23;20029;-83
2022/11/02 10:21:22;;;;;;;0.13;0.13;;;;;;;;;;6154720;23;20025;-86
2022/11/02 10:23:52;;;;;;;2.75;0.73;;;;;;;;;;6155326;23;20018;-86
2022/11/02 10:26:23;;;;;;;2.90;0.70;;;;;;;;;;6154505;23;20067;-85
2022/11/02 10:28:57;;;;;;;2.28;0.43;;;;;;;;;;6154921;23;20021;-86
2022/11/02 10:31:27;;;;;;;1.42;0.35;;;;;;;;;;6156071;23;20025;-86
2022/11/02 10:33:57;;;;;;;1.90;0.55;;;;;;;;;;6160735;23;20447;-86
2022/11/02 10:36:32;;;;;;;0.10;0.10;;;;;;;;;;6155939;23;20029;-86
2022/11/02 10:39:10;;;;;;;0.22;0.22;;;;;;;;;;6154456;23;20454;-86
2022/11/02 10:41:51;;;;;;;2.28;0.32;;;;;;;;;;6154130;23;20025;-86
2022/11/02 10:44:27;;;;;;;0.90;0.30;;;;;;;;;;6154644;23;20096;-86
2022/11/02 10:47:04;;;;;;;0.30;0.20;;;;;;;;;;6154352;23;20029;-86
2022/11/02 10:49:50;;;;;;;0.10;0.10;;;;;;;;;;6154764;23;20022;-86
2022/11/02 10:52:19;;;;;;;2.75;1.40;;;;;;;;;;6153854;23;20017;-86
2022/11/02 10:54:52;;;;;;;1.73;0.30;;;;;;;;;;6154735;23;20025;-87
2022/11/02 10:57:24;;;;;;;0.57;0.20;;;;;;;;;;6154684;23;20025;-87
2022/11/02 11:00:07;;;;;;;1.00;0.85;;;;;;;;;;6154288;23;20037;-86
2022/11/02 11:02:35;;;;;;;0.47;0.15;;;;;;;;;;6152695;23;20136;-86
2022/11/02 11:05:13;;;;;;;0.52;0.52;;;;;;;;;;6154574;23;20018;-87
2022/11/02 11:07:44;;;;;;;1.92;0.85;;;;;;;;;;6153885;23;20484;-87
2022/11/02 11:10:15;;;;;;;0.50;0.30;;;;;;;;;;6155904;23;20030;-86
2022/11/02 11:12:45;;;;;;;0.13;0.13;;;;;;;;;;6155542;23;20055;-86
2022/11/02 11:15:22;;;;;;;0.10;0.10;;;;;;;;;;6155862;23;20480;-86
2022/11/02 11:18:13;;;;;;;1.50;0.60;;;;;;;;;;6155631;23;20027;-86
2022/11/02 11:21:05;;;;;;;0.10;0.10;;;;;;;;;;6155158;23;20021;-86
2022/11/02 11:23:33;;;;;;;0.20;0.20;;;;;;;;;;6155675;23;20404;-86
2022/11/02 11:26:02;;;;;;;0.63;0.10;;;;;;;;;;6155678;23;20022;-86
2022/11/02 11:28:33;;;;;;;4.00;0.63;;;;;;;;;;6155752;23;20096;-86
2022/11/02 11:31:09;;;;;;;2.05;0.30;;;;;;;;;;6155116;23;20477;-86
2022/11/02 11:33:44;;;;;;;0.20;0.15;;;;;;;;;;6156315;23;20025;-87
2022/11/02 11:36:23;;;;;;;0.57;0.30;;;;;;;;;;6155624;23;20022;-87
2022/11/02 11:38:56;;;;;;;0.75;0.32;;;;;;;;;;6155863;23;20029;-86
2022/11/02 11:41:25;;;;;;;4.57;0.63;;;;;;;;;;6158730;23;20481;-86
2022/11/02 11:43:55;;;;;;;1.13;0.38;;;;;;;;;;6158707;23;20331;-86
2022/11/02 11:46:24;;;;;;;0.17;0.15;;;;;;;;;;6158729;23;20022;-86
2022/11/02 11:48:53;;;;;;;1.55;0.30;;;;;;;;;;6156251;23;20045;-86
2022/11/02 11:51:25;;;;;;;1.05;0.35;;;;;;;;;;6155869;23;20032;-86
2022/11/02 11:54:14;;;;;;;5.72;0.20;;;;;;;;;;6158100;23;20021;-85
2022/11/02 11:56:43;;;;;;;1.02;0.25;;;;;;;;;;6158145;23;20056;-86
2022/11/02 11:59:26;;;;;;;0.57;0.30;;;;;;;;;;6159705;23;20446;-86
2022/11/02 12:01:57;;;;;;;0.88;0.77;;;;;;;;;;6157785;23;20036;-86
2022/11/02 12:04:32;;;;;;;0.30;0.28;;;;;;;;;;6156607;23;20053;-86
2022/11/02 12:07:21;;;;;;;1.70;0.50;;;;;;;;;;6157958;23;20028;-85
2022/11/02 12:09:54;;;;;;;0.40;0.30;;;;;;;;;;6156900;23;20017;-86
2022/11/02 12:12:27;;;;;;;0.45;0.35;;;;;;;;;;6155400;23;20022;-86
2022/11/02 12:15:01;;;;;;;0.28;0.28;;;;;;;;;;6157454;23;20017;-86
2022/11/02 12:17:39;;;;;;;1.13;0.50;;;;;;;;;;6157788;23;20021;-85
2022/11/02 12:20:15;;;;;;;1.92;0.57;;;;;;;;;;6156354;23;20018;-85
2022/11/02 12:22:47;;;;;;;0.50;0.20;;;;;;;;;;6156220;23;20017;-85
2022/11/02 12:25:25;;;;;;;0.63;0.20;;;;;;;;;;6160305;23;20013;-85
2022/11/02 12:28:01;;;;;;;0.10;0.10;;;;;;;;;;6156330;23;20080;-86
2022/11/02 12:30:34;;;;;;;0.20;0.20;;;;;;;;;;6155707;23;20053;-86
2022/11/02 12:33:13;;;;;;;2.85;0.43;;;;;;;;;;6156045;23;20246;-84
2022/11/02 12:36:04;;;;;;;0.32;0.20;;;;;;;;;;6143640;23;20099;-85
2022/11/02 12:38:52;;;;;;;0.10;0.10;;;;;;;;;;6160275;23;20021;-83
2022/11/02 12:41:56;;;;;;;1.02;0.20;;;;;;;;;;6158043;23;20021;-86
2022/11/02 12:47:53;;;;;;;1.98;1.33;;;;;;;;;;6163733;23;20525;-85
2022/11/02 12:50:37;;;;;;;0.43;0.20;;;;;;;;;;6163606;23;20014;-84
2022/11/02 12:53:51;;;;;;;0.10;0.10;;;;;;;;;;6141523;23;20045;-85
2022/11/02 12:56:24;;;;;;;0.10;0.10;;;;;;;;;;6109406;23;20025;-86
2022/11/02 12:58:56;;;;;;;2.15;0.20;;;;;;;;;;6163738;23;20024;-85
2022/11/02 13:01:40;;;;;;;3.13;0.43;;;;;;;;;;6163036;23;20488;-85
2022/11/02 13:04:27;;;;;;;1.75;0.20;;;;;;;;;;6147273;23;20030;-86
2022/11/02 13:07:13;;;;;;;0.20;0.20;;;;;;;;;;6158849;23;20459;-85
2022/11/02 13:09:57;;;;;;;1.65;0.30;;;;;;;;;;6159798;23;20085;-84
2022/11/02 13:12:28;;;;;;;0.57;0.57;;;;;;;;;;6155414;23;20092;-84
2022/11/02 13:14:58;;;;;;;4.72;0.30;;;;;;;;;;6156932;23;20100;-85
2022/11/02 13:17:28;;;;;;;1.23;0.40;;;;;;;;;;6155427;23;20421;-84
2022/11/02 13:20:26;;;;;;;0.10;0.10;;;;;;;;;;6153593;23;20475;-85
2022/11/02 13:22:57;;;;;;;1.48;0.30;;;;;;;;;;6155023;23;20018;-85
2022/11/02 13:25:28;;;;;;;0.00;0.00;;;;;;;;;;6157331;23;20024;-85
2022/11/02 13:27:58;;;;;;;0.93;0.15;;;;;;;;;;6154900;23;20496;-84
2022/11/02 13:30:33;;;;;;;3.45;0.60;;;;;;;;;;6155466;23;20411;-85
2022/11/02 13:33:06;;;;;;;0.30;0.30;;;;;;;;;;6154191;23;20101;-85
2022/11/02 13:35:39;;;;;;;0.35;0.35;;;;;;;;;;6154796;23;20026;-85
2022/11/02 13:38:16;;;;;;;2.28;0.28;;;;;;;;;;6154740;23;20021;-85
2022/11/02 13:40:48;;;;;;;0.00;0.00;;;;;;;;;;6154569;23;20060;-85
2022/11/02 13:43:39;;;;;;;0.20;0.20;;;;;;;;;;6155320;23;20052;-85
2022/11/02 13:46:13;;;;;;;0.20;0.20;;;;;;;;;;6155243;23;20076;-85
2022/11/02 13:48:54;;;;;;;0.05;0.03;;;;;;;;;;6155018;23;20021;-85
2022/11/02 13:51:33;;;;;;;0.20;0.10;;;;;;;;;;6153792;23;20041;-85
2022/11/02 13:54:03;;;;;;;0.13;0.13;;;;;;;;;;6154828;23;20089;-86
2022/11/02 13:56:31;;;;;;;0.45;0.45;;;;;;;;;;6154505;23;20040;-86
2022/11/02 13:59:01;;;;;;;0.38;0.10;;;;;;;;;;6155403;23;20101;-83
2022/11/02 14:01:32;;;;;;;0.08;0.08;;;;;;;;;;6153958;23;20131;-85
2022/11/02 14:04:03;;;;;;;0.40;0.40;;;;;;;;;;6154140;23;20351;-85
2022/11/02 14:06:34;;;;;;;0.65;0.20;;;;;;;;;;6154138;23;20101;-86
2022/11/02 14:09:05;;;;;;;0.70;0.05;;;;;;;;;;6154413;23;20097;-85
2022/11/02 14:11:35;;;;;;;0.10;0.10;;;;;;;;;;6153465;23;20130;-85
2022/11/02 14:14:08;;;;;;;0.10;0.10;;;;;;;;;;6154205;23;20096;-85
2022/11/02 14:16:44;;;;;;;0.20;0.20;;;;;;;;;;6154295;23;20028;-85
2022/11/02 14:19:26;;;;;;;0.10;0.10;;;;;;;;;;6154556;23;20037;-85
2022/11/02 14:22:15;;;;;;;0.93;0.10;;;;;;;;;;6153937;23;20045;-85
2022/11/02 14:25:06;;;;;;;0.90;0.38;;;;;;;;;;6147831;23;20026;-84
2022/11/02 14:27:35;;;;;;;0.55;0.20;;;;;;;;;;6154380;23;20026;-86
2022/11/02 14:30:04;;;;;;;0.22;0.22;;;;;;;;;;6154729;23;20320;-85
2022/11/02 14:32:43;;;;;;;0.28;0.28;;;;;;;;;;6153345;23;20028;-85
2022/11/02 14:35:22;;;;;;;0.52;0.40;;;;;;;;;;6154430;23;20025;-85
2022/11/02 14:38:03;;;;;;;0.10;0.10;;;;;;;;;;6154365;23;20100;-85
2022/11/02 14:40:38;;;;;;;0.10;0.10;;;;;;;;;;6154100;23;20022;-85
2022/11/02 14:43:29;;;;;;;0.98;0.25;;;;;;;;;;6113174;23;20022;-85
2022/11/02 14:46:06;;;;;;;0.85;0.50;;;;;;;;;;6157071;23;20324;-85
2022/11/02 14:48:43;;;;;;;0.95;0.20;;;;;;;;;;6157019;23;20026;-85
2022/11/02 14:51:15;;;;;;;0.10;0.10;;;;;;;;;;6155690;23;20024;-85
2022/11/02 14:53:44;;;;;;;0.10;0.10;;;;;;;;;;6156645;23;20042;-85
2022/11/02 14:56:13;;;;;;;0.20;0.20;;;;;;;;;;6156566;23;20088;-85
2022/11/02 14:58:48;;;;;;;0.15;0.15;;;;;;;;;;6156054;23;20350;-85
2022/11/02 15:01:17;;;;;;;0.60;0.30;;;;;;;;;;6155713;23;20025;-85
2022/11/02 15:03:47;;;;;;;1.08;0.30;;;;;;;;;;6155802;23;20526;-85
2022/11/02 15:06:17;;;;;;;0.17;0.15;;;;;;;;;;6156353;23;20022;-85
2022/11/02 15:08:50;;;;;;;3.47;0.32;;;;;;;;;;6155884;23;20022;-85
2022/11/02 15:11:43;;;;;;;0.28;0.28;;;;;;;;;;6155311;23;20036;-85
2022/11/02 15:14:30;;;;;;;0.52;0.52;;;;;;;;;;6156275;23;20021;-85
2022/11/02 15:17:00;;;;;;;0.20;0.20;;;;;;;;;;6155983;23;20029;-85
2022/11/02 15:19:36;;;;;;;0.13;0.10;;;;;;;;;;6155899;23;20104;-85
2022/11/02 15:22:23;;;;;;;0.35;0.17;;;;;;;;;;6155629;23;20022;-85
2022/11/02 15:24:52;;;;;;;2.42;0.32;;;;;;;;;;6156408;23;20028;-85
2022/11/02 15:27:21;;;;;;;0.55;0.20;;;;;;;;;;6155678;23;20021;-85
2022/11/02 15:29:50;;;;;;;0.43;0.20;;;;;;;;;;6155971;23;20096;-85